Yokohama, Japan

3:50 PM JST on September 02, 2014 (GMT +0900)
Totsukaku-Kashiodai | Change Station
CLOSE
Current Station
Personal Weather Station
Location: 横浜市, 神奈川県
Elevation: 112 ft
Nearby Weather Stations

Elev 112 ft 35.42 °N, 139.56 °E | Updated 26 seconds ago

Partly Cloudy
Partly Cloudy
85.8 °F
Feels Like 87 °F
N
2.9
Wind Variable Wind from East
Gusts 4.9 mph

Today
High -- | Low -- °F
--% Chance of Precip.
Yesterday
High -- | Low -- °F
Precip. -- in
5:14 AM 6:07 PM
Waxing Crescent, 48% visible
Pressure 29.89 in
Visibility 6.2 miles
Clouds Few 2500 ft
Heat Index 87 °F
Dew Point 63 °F
Humidity 46%
Rainfall 0.00 in
Snow Depth Not available.
UV 3 out of 12
Pollen Not available.
Air Quality Not available.
Flu Activity Not available.
METAR RJTT 020630Z 11008KT 9999 FEW025 28/20 Q1012 NOSIG RMK 1CU025 A2990

More Conditions Fewer Conditions

Pressure 29.89 in
Visibility 6.2 miles
Clouds Few 2500 ft
Heat Index 87 °F
Dew Point 63 °F
Humidity 46%
Rainfall 0.00 in
Snow Depth Not available.
UV 3 out of 12
Pollen Not available.
Air Quality Not available.
Flu Activity Not available.
METAR RJTT 020630Z 11008KT 9999 FEW025 28/20 Q1012 NOSIG RMK 1CU025 A2990

More Conditions Fewer Conditions

10-Day Weather Forecast

Almanac

Astronomy

Sep. 02, 2014 Rise Set
Actual Time 5:14 AM JST 6:07 PM JST
Civil Twilight 4:48 AM JST 6:33 PM JST
Nautical Twilight 4:17 AM JST 7:04 PM JST
Astronomical Twilight 3:45 AM JST 7:36 PM JST
Moon 12:06 PM JST 10:42 PM JST
Length of Visible Light 13h 45m
Length of Day
12h 53m
Tomorrow will be 2m 8s shorter.
Waxing Crescent, 48% of the Moon is Illuminated
Today
Waxing Crescent
Sep 2
First Quarter
Sep 8
Full
Sep 15
Last Quarter
Sep 24
New

Yesterday's Extremes

Country Highs Country Lows

Community

WunderPhotos

Upload Photos

1,749,589 photos uploaded!

WunderBlogs® & News

Nearby

Snow Depth

Not available.

Earthquake Activity

City Distance Mag. Time & Date
No recent earthquake activity has been reported nearby.
Minimum magnitude displayed is 2.5.

Coastal Water Temperatures

Place Temperature
No Stations Reporting

Nearby Weather Stations